Time;durP1;ratioP1;P1;durP2;ratioP2;P2;SDS_P1;SDS_P2;PMS_P1;PMS_P2;Temp;Humidity;BMP_temperature;BMP_pressure;BME280_temperature;BME280_humidity;BME280_pressure;Samples;Min_cycle;Max_cycle;Signal;HPM_P1;HPM_P2
2022/11/25 00:01:32;;;;;;;11.02;2.75;;;;;;;9.82;100.00;100846.13;2617004;31;20037;-53
2022/11/25 00:04:01;;;;;;;8.40;2.60;;;;;;;9.85;100.00;100845.00;2616929;36;20059;-53
2022/11/25 00:06:30;;;;;;;12.52;2.92;;;;;;;9.80;100.00;100838.19;2615433;31;20061;-54
2022/11/25 00:09:01;;;;;;;11.45;2.72;;;;;;;9.83;100.00;100834.38;2616298;36;20037;-50
2022/11/25 00:11:29;;;;;;;10.05;2.88;;;;;;;9.77;100.00;100842.97;2615535;36;20033;-56
2022/11/25 00:13:59;;;;;;;14.03;2.83;;;;;;;9.85;100.00;100839.63;2616570;36;20026;-52
2022/11/25 00:16:28;;;;;;;14.10;2.80;;;;;;;10.00;100.00;100832.94;2618280;31;20424;-54
2022/11/25 00:18:59;;;;;;;8.23;2.67;;;;;;;9.78;100.00;100832.09;2616627;36;20029;-54
2022/11/25 00:21:30;;;;;;;9.57;2.78;;;;;;;9.79;100.00;100831.09;2615041;31;20439;-55
2022/11/25 00:23:59;;;;;;;11.15;2.63;;;;;;;9.72;100.00;100824.56;2618016;31;20447;-55
2022/11/25 00:26:31;;;;;;;10.02;3.35;;;;;;;9.81;100.00;100829.13;2617985;31;20026;-51
2022/11/25 00:29:01;;;;;;;14.88;3.28;;;;;;;9.76;100.00;100830.50;2614764;36;20440;-51
2022/11/25 00:31:32;;;;;;;10.52;3.20;;;;;;;9.72;100.00;100829.94;2616597;31;20031;-54
2022/11/25 00:34:03;;;;;;;15.55;3.50;;;;;;;9.76;100.00;100830.50;2616689;31;20405;-53
2022/11/25 00:36:33;;;;;;;13.40;3.40;;;;;;;9.86;100.00;100830.56;2615943;36;20571;-52
2022/11/25 00:39:03;;;;;;;11.85;3.58;;;;;;;9.62;100.00;100824.47;2616193;31;20034;-55
2022/11/25 00:46:55;;;;;;;14.45;3.17;;;;;;;9.67;100.00;100825.94;2616872;36;20413;-54
2022/11/25 00:49:26;;;;;;;14.05;3.08;;;;;;;9.62;100.00;100832.53;2616239;36;20123;-52
2022/11/25 00:51:54;;;;;;;10.70;3.20;;;;;;;9.78;100.00;100829.41;2618092;36;20029;-51
2022/11/25 00:54:22;;;;;;;13.80;2.83;;;;;;;9.69;100.00;100829.31;2615391;36;20034;-54
2022/11/25 00:56:51;;;;;;;15.03;3.33;;;;;;;9.66;100.00;100830.47;2615552;36;20026;-52
2022/11/25 00:59:20;;;;;;;10.20;2.65;;;;;;;9.64;100.00;100832.41;2614817;36;20031;-53
2022/11/25 01:01:49;;;;;;;10.13;2.22;;;;;;;9.64;100.00;100824.34;2615902;36;20543;-58
2022/11/25 01:04:17;;;;;;;12.25;3.22;;;;;;;9.63;100.00;100831.56;2616410;36;20516;-58
2022/11/25 01:06:48;;;;;;;15.18;3.50;;;;;;;9.55;100.00;100835.88;2616003;36;20023;-54
2022/11/25 01:09:16;;;;;;;15.70;3.60;;;;;;;9.41;100.00;100829.84;2614157;31;20031;-58
2022/11/25 01:11:45;;;;;;;16.55;3.40;;;;;;;9.55;100.00;100830.50;2614972;36;20035;-55
2022/11/25 01:14:13;;;;;;;15.93;4.33;;;;;;;9.50;100.00;100830.06;2616614;31;20037;-56
2022/11/25 01:16:42;;;;;;;12.70;3.55;;;;;;;9.41;100.00;100826.31;2615545;36;20034;-54
2022/11/25 01:19:12;;;;;;;14.32;3.03;;;;;;;9.42;100.00;100820.81;2616210;36;20400;-54
2022/11/25 01:21:40;;;;;;;12.88;2.88;;;;;;;9.43;100.00;100835.94;2614532;36;20025;-54
2022/11/25 01:24:13;;;;;;;13.45;3.53;;;;;;;9.36;100.00;100824.00;2616009;31;20043;-54
2022/11/25 01:26:43;;;;;;;14.82;3.58;;;;;;;9.52;100.00;100823.56;2614889;36;20034;-56
2022/11/25 01:29:16;;;;;;;13.68;3.22;;;;;;;9.44;100.00;100831.44;2615669;36;20030;-51
2022/11/25 01:31:45;;;;;;;16.88;3.20;;;;;;;9.39;100.00;100829.13;2615327;36;20165;-53
2022/11/25 01:34:15;;;;;;;11.95;3.30;;;;;;;9.40;100.00;100833.50;2616257;36;20023;-51
2022/11/25 01:36:44;;;;;;;9.85;3.28;;;;;;;9.52;100.00;100825.41;2616186;31;20019;-54
2022/11/25 01:39:19;;;;;;;12.68;3.63;;;;;;;9.47;100.00;100839.22;2616635;31;20053;-51
2022/11/25 01:41:48;;;;;;;16.08;3.47;;;;;;;9.43;100.00;100835.94;2615221;36;20114;-54
2022/11/25 01:44:18;;;;;;;12.48;3.20;;;;;;;9.27;100.00;100822.94;2616219;36;20031;-52
2022/11/25 01:46:57;;;;;;;17.20;3.33;;;;;;;9.35;100.00;100830.38;2615029;36;20053;-52
2022/11/25 01:49:31;;;;;;;14.60;3.27;;;;;;;9.53;100.00;100824.44;2616157;36;20118;-56
2022/11/25 01:52:09;;;;;;;9.23;2.88;;;;;;;9.55;100.00;100827.81;2615881;36;20045;-55
2022/11/25 01:54:44;;;;;;;16.40;4.05;;;;;;;9.61;100.00;100824.59;2615862;36;20085;-51
2022/11/25 01:57:16;;;;;;;12.45;3.13;;;;;;;9.58;100.00;100827.56;2613219;36;20041;-56
2022/11/25 01:59:50;;;;;;;13.90;3.38;;;;;;;9.52;100.00;100833.47;2614953;36;20550;-53
2022/11/25 02:02:20;;;;;;;8.57;2.85;;;;;;;9.55;100.00;100831.34;2614897;31;20064;-52
2022/11/25 02:04:50;;;;;;;12.93;3.17;;;;;;;9.59;100.00;100834.66;2616151;36;20038;-52
2022/11/25 02:07:23;;;;;;;;;;;;;;;9.60;100.00;100841.75;2616334;36;20027;-54
2022/11/25 02:09:57;;;;;;;17.83;3.50;;;;;;;9.53;100.00;100851.28;2615930;36;19954;-55
2022/11/25 02:12:25;;;;;;;15.77;4.00;;;;;;;9.51;100.00;100843.38;2613886;31;20034;-55
2022/11/25 02:14:57;;;;;;;19.00;3.40;;;;;;;9.77;100.00;100843.81;2613856;36;20053;-51
2022/11/25 02:17:26;;;;;;;10.48;2.60;;;;;;;9.87;100.00;100845.72;2616105;36;20046;-57
2022/11/25 02:20:02;;;;;;;14.13;3.58;;;;;;;9.70;100.00;100847.16;2614727;36;20035;-53
2022/11/25 02:22:40;;;;;;;9.70;2.90;;;;;;;9.75;100.00;100853.84;2613137;36;20026;-55
2022/11/25 02:25:18;;;;;;;14.48;3.05;;;;;;;9.71;100.00;100851.56;2614550;36;20430;-53
2022/11/25 02:27:50;;;;;;;11.25;2.97;;;;;;;9.68;100.00;100868.78;2615151;36;20069;-54
2022/11/25 02:30:19;;;;;;;10.43;3.40;;;;;;;9.64;100.00;100854.78;2615793;31;20053;-50
2022/11/25 02:32:48;;;;;;;12.38;3.90;;;;;;;9.64;100.00;100843.16;2615250;36;20404;-49
2022/11/25 02:35:26;;;;;;;;;;;;;;;9.68;100.00;100854.50;2616176;31;20034;-54
2022/11/25 02:37:58;;;;;;;8.25;3.30;;;;;;;9.74;100.00;100859.38;2616348;31;20355;-49
2022/11/25 02:40:29;;;;;;;17.73;3.72;;;;;;;9.64;100.00;100864.66;2613097;36;20041;-52
2022/11/25 02:43:01;;;;;;;16.25;3.50;;;;;;;9.75;100.00;100855.69;2614925;36;20031;-56
2022/11/25 02:45:38;;;;;;;23.67;4.55;;;;;;;9.74;100.00;100862.03;2616167;36;20030;-50
2022/11/25 02:48:07;;;;;;;10.70;3.30;;;;;;;9.47;100.00;100864.25;2615852;36;20019;-50
2022/11/25 02:50:35;;;;;;;14.50;3.88;;;;;;;9.61;100.00;100859.53;2615684;36;20460;-54
2022/11/25 02:53:04;;;;;;;11.03;4.13;;;;;;;9.80;100.00;100865.06;2616374;36;20030;-55
2022/11/25 02:55:37;;;;;;;9.30;3.10;;;;;;;9.72;100.00;100862.19;2615682;47;20034;-52
2022/11/25 02:58:06;;;;;;;16.00;4.43;;;;;;;9.60;100.00;100857.84;2615356;36;20081;-50
2022/11/25 03:00:34;;;;;;;12.65;3.47;;;;;;;9.50;100.00;100863.16;2615589;36;20057;-52
2022/11/25 03:03:03;;;;;;;10.85;3.70;;;;;;;9.73;100.00;100847.78;2615539;36;20037;-54
2022/11/25 03:05:32;;;;;;;11.50;3.45;;;;;;;9.71;100.00;100841.66;2615437;31;20057;-52
2022/11/25 03:08:00;;;;;;;5.78;3.17;;;;;;;9.60;100.00;100831.84;2613347;36;20555;-54
2022/11/25 03:10:28;;;;;;;11.90;4.38;;;;;;;9.70;100.00;100848.03;2613971;36;20030;-55
2022/11/25 03:12:59;;;;;;;14.35;3.60;;;;;;;9.68;100.00;100841.06;2615506;36;20428;-51
2022/11/25 03:15:28;;;;;;;10.35;3.55;;;;;;;9.65;100.00;100867.22;2616279;36;20019;-55
2022/11/25 03:17:57;;;;;;;19.33;4.13;;;;;;;9.88;100.00;100868.91;2616298;31;20042;-54
2022/11/25 03:20:26;;;;;;;12.37;4.30;;;;;;;9.86;100.00;100873.59;2614353;36;20031;-54
2022/11/25 03:22:54;;;;;;;11.45;4.47;;;;;;;9.99;100.00;100872.38;2615544;36;20280;-56
2022/11/25 03:25:23;;;;;;;13.05;3.63;;;;;;;9.91;100.00;100879.41;2614821;36;20038;-51
2022/11/25 03:27:51;;;;;;;14.40;3.75;;;;;;;9.74;100.00;100878.19;2615777;36;20030;-52
2022/11/25 03:30:24;;;;;;;15.80;4.35;;;;;;;9.71;100.00;100887.34;2614491;36;20405;-56
2022/11/25 03:32:53;;;;;;;11.00;3.80;;;;;;;9.87;100.00;100870.78;2615588;36;20058;-52
2022/11/25 03:35:22;;;;;;;13.57;3.70;;;;;;;9.75;100.00;100878.03;2615598;36;20045;-54
2022/11/25 03:37:50;;;;;;;15.23;3.45;;;;;;;9.87;100.00;100880.69;2616080;36;20339;-52
2022/11/25 03:40:19;;;;;;;13.03;3.53;;;;;;;9.83;100.00;100872.00;2615837;31;20098;-52
2022/11/25 03:42:49;;;;;;;12.52;3.47;;;;;;;9.71;100.00;100870.38;2616177;31;20023;-57
2022/11/25 03:45:18;;;;;;;15.95;4.07;;;;;;;9.74;100.00;100868.25;2615433;36;20046;-53
2022/11/25 03:47:49;;;;;;;11.60;4.25;;;;;;;9.79;100.00;100866.06;2614768;36;20041;-51
2022/11/25 03:50:17;;;;;;;12.40;3.85;;;;;;;9.84;100.00;100870.19;2616013;36;20034;-53
2022/11/25 03:52:46;;;;;;;14.00;3.47;;;;;;;9.72;100.00;100867.56;2615371;36;20039;-51
2022/11/25 03:55:15;;;;;;;12.23;3.72;;;;;;;9.80;100.00;100878.53;2615590;36;20030;-53
2022/11/25 03:57:43;;;;;;;;;;;;;;;9.98;100.00;100880.59;2615989;36;20023;-54
2022/11/25 04:00:13;;;;;;;13.70;3.55;;;;;;;9.92;100.00;100889.19;2615772;31;19957;-56
2022/11/25 04:02:41;;;;;;;15.73;4.03;;;;;;;9.79;100.00;100884.00;2615515;31;20018;-53
2022/11/25 04:05:12;;;;;;;13.52;3.83;;;;;;;9.81;100.00;100879.38;2616259;36;20056;-50
2022/11/25 04:07:41;;;;;;;13.32;4.82;;;;;;;9.84;100.00;100867.50;2615343;36;20034;-52
2022/11/25 04:10:10;;;;;;;13.35;3.90;;;;;;;9.85;100.00;100869.19;2615392;36;20037;-55
2022/11/25 04:12:46;;;;;;;12.30;4.05;;;;;;;9.90;100.00;100875.88;2613944;36;20042;-55
2022/11/25 04:15:15;;;;;;;8.30;3.92;;;;;;;9.67;100.00;100869.75;2615126;36;20041;-56
2022/11/25 04:17:43;;;;;;;12.63;4.50;;;;;;;9.81;100.00;100872.13;2633841;36;20034;-56
2022/11/25 04:20:15;;;;;;;17.20;4.73;;;;;;;9.62;100.00;100890.81;2616214;36;20476;-60
2022/11/25 04:22:44;;;;;;;16.77;4.20;;;;;;;9.78;100.00;100899.28;2615065;36;20307;-54
2022/11/25 04:25:13;;;;;;;12.18;4.20;;;;;;;9.86;100.00;100889.72;2615802;36;20427;-54
2022/11/25 04:27:41;;;;;;;8.15;3.45;;;;;;;9.82;100.00;100899.91;2615924;36;20034;-55
2022/11/25 04:30:11;;;;;;;17.20;4.35;;;;;;;9.65;100.00;100895.94;2614748;36;20421;-58
2022/11/25 04:32:39;;;;;;;10.65;3.97;;;;;;;9.73;100.00;100906.03;2615520;36;20026;-56
2022/11/25 04:35:08;;;;;;;14.88;4.20;;;;;;;9.63;100.00;100911.34;2615874;36;20034;-55
2022/11/25 04:37:39;;;;;;;14.88;3.88;;;;;;;9.60;100.00;100906.22;2615487;36;20048;-53
2022/11/25 04:40:09;;;;;;;10.60;3.67;;;;;;;9.78;100.00;100910.03;2615405;36;20035;-59
2022/11/25 04:42:38;;;;;;;20.88;4.28;;;;;;;9.70;100.00;100912.53;2615742;36;20025;-53
2022/11/25 04:45:10;;;;;;;12.60;4.30;;;;;;;9.63;100.00;100916.72;2616644;36;20019;-55
2022/11/25 04:47:39;;;;;;;8.82;3.72;;;;;;;9.70;100.00;100920.59;2614698;36;20038;-52
2022/11/25 04:50:11;;;;;;;11.27;3.58;;;;;;;9.68;100.00;100914.47;2616202;36;20030;-54
2022/11/25 04:52:42;;;;;;;12.38;3.65;;;;;;;9.63;100.00;100928.31;2614797;36;20038;-55
2022/11/25 04:55:13;;;;;;;12.35;4.07;;;;;;;9.75;100.00;100925.59;2614834;36;20033;-56
2022/11/25 04:57:41;;;;;;;11.95;3.30;;;;;;;9.67;100.00;100934.25;2615586;36;20042;-56
2022/11/25 05:00:09;;;;;;;9.27;3.63;;;;;;;9.87;100.00;100940.66;2616693;36;20433;-55
2022/11/25 05:02:37;;;;;;;8.73;3.50;;;;;;;9.91;100.00;100941.25;2614990;36;20287;-58
2022/11/25 05:05:07;;;;;;;8.13;3.55;;;;;;;9.65;100.00;100941.63;2616307;36;20424;-53
2022/11/25 05:07:35;;;;;;;13.68;3.70;;;;;;;9.69;100.00;100947.56;2613398;36;20609;-55
2022/11/25 05:10:08;;;;;;;11.48;3.50;;;;;;;9.84;100.00;100951.69;2614480;36;20034;-55
2022/11/25 05:12:37;;;;;;;11.68;2.90;;;;;;;9.67;100.00;100953.06;2613458;36;20023;-58
2022/11/25 05:15:06;;;;;;;9.52;3.20;;;;;;;9.71;100.00;100957.22;2616603;36;20453;-55
2022/11/25 05:17:35;;;;;;;9.27;2.83;;;;;;;9.81;100.00;100954.63;2616102;36;20023;-56
2022/11/25 05:20:04;;;;;;;13.13;2.90;;;;;;;9.74;100.00;100961.50;2616783;36;20026;-56
2022/11/25 05:22:34;;;;;;;11.27;2.65;;;;;;;9.69;100.00;100959.19;2615250;36;20022;-55
2022/11/25 05:25:07;;;;;;;8.27;2.90;;;;;;;9.43;100.00;100970.25;2616277;31;20034;-52
2022/11/25 05:27:36;;;;;;;10.73;2.72;;;;;;;9.63;100.00;100975.84;2614905;36;20034;-55
2022/11/25 05:30:04;;;;;;;5.97;2.17;;;;;;;9.52;100.00;100973.19;2616093;36;20030;-56
2022/11/25 05:32:33;;;;;;;7.10;2.20;;;;;;;9.39;100.00;100978.69;2616114;36;20041;-52
2022/11/25 05:35:01;;;;;;;5.60;2.33;;;;;;;9.35;100.00;100980.78;2616531;36;20291;-55
2022/11/25 05:37:29;;;;;;;7.68;2.53;;;;;;;9.39;100.00;100990.31;2615915;36;20030;-52
2022/11/25 05:39:58;;;;;;;6.00;2.65;;;;;;;9.22;100.00;100982.78;2615823;36;20030;-57
2022/11/25 05:42:30;;;;;;;7.63;2.50;;;;;;;9.22;100.00;100986.31;2616098;36;20040;-53
2022/11/25 05:45:00;;;;;;;9.48;2.70;;;;;;;9.20;100.00;100990.09;2616207;36;20033;-56
2022/11/25 05:47:28;;;;;;;9.10;2.63;;;;;;;9.18;100.00;100987.53;2616264;36;20030;-56
2022/11/25 05:49:57;;;;;;;6.57;3.00;;;;;;;9.22;100.00;100993.50;2615394;36;20042;-56
2022/11/25 05:52:25;;;;;;;7.80;2.35;;;;;;;9.06;100.00;100993.88;2616115;36;20045;-61
2022/11/25 05:54:53;;;;;;;5.38;2.03;;;;;;;9.16;100.00;100994.84;2614153;31;20034;-56
2022/11/25 05:57:22;;;;;;;8.20;2.63;;;;;;;9.07;100.00;101001.81;2615402;36;20034;-53
2022/11/25 05:59:52;;;;;;;6.32;2.40;;;;;;;9.10;100.00;101012.31;2616031;36;20031;-54
2022/11/25 06:02:21;;;;;;;7.65;2.45;;;;;;;8.99;100.00;101009.63;2614370;36;20038;-57
2022/11/25 06:04:49;;;;;;;8.27;2.20;;;;;;;9.15;100.00;101006.56;2613460;36;20042;-58
2022/11/25 06:07:17;;;;;;;6.68;2.53;;;;;;;8.96;100.00;101009.88;2615089;36;20026;-57
2022/11/25 06:09:45;;;;;;;6.85;1.92;;;;;;;9.10;100.00;101012.31;2615205;36;20027;-56
2022/11/25 06:12:14;;;;;;;10.77;2.30;;;;;;;9.01;100.00;101002.31;2614729;36;20026;-55
2022/11/25 06:14:42;;;;;;;5.35;2.03;;;;;;;9.03;100.00;101015.63;2614608;31;20030;-56
2022/11/25 06:17:13;;;;;;;8.38;2.28;;;;;;;8.96;100.00;101009.88;2615415;36;20431;-56
2022/11/25 06:19:41;;;;;;;8.70;1.88;;;;;;;8.95;100.00;101013.50;2615859;36;20032;-56
2022/11/25 06:22:10;;;;;;;8.23;2.50;;;;;;;9.11;100.00;101016.72;2614991;36;20034;-57
2022/11/25 06:24:38;;;;;;;9.60;2.65;;;;;;;9.01;100.00;101029.16;2614767;36;20042;-55
2022/11/25 06:27:06;;;;;;;5.35;2.83;;;;;;;8.88;100.00;101023.91;2614360;36;20030;-52
2022/11/25 06:29:34;;;;;;;7.55;2.47;;;;;;;8.96;100.00;101028.66;2613849;36;20582;-60
2022/11/25 06:32:03;;;;;;;9.52;2.72;;;;;;;9.04;100.00;101031.59;2613889;36;20034;-54
2022/11/25 06:34:40;;;;;;;8.90;3.10;;;;;;;8.96;100.00;101030.50;2615665;36;20668;-55
2022/11/25 06:37:09;;;;;;;8.40;2.67;;;;;;;8.86;100.00;101028.56;2614949;36;20030;-53
2022/11/25 06:39:37;;;;;;;7.55;3.03;;;;;;;8.97;100.00;101037.59;2615370;36;20034;-54
2022/11/25 06:42:05;;;;;;;8.23;3.45;;;;;;;8.93;100.00;101036.97;2615437;31;20038;-54
2022/11/25 06:44:34;;;;;;;8.68;3.30;;;;;;;8.91;100.00;101041.59;2615783;36;20586;-53
2022/11/25 06:47:02;;;;;;;7.90;3.38;;;;;;;8.89;100.00;101040.84;2616054;36;20034;-53
2022/11/25 06:49:30;;;;;;;6.28;3.25;;;;;;;8.92;100.00;101045.97;2615245;36;20030;-55
2022/11/25 06:52:01;;;;;;;8.63;3.30;;;;;;;8.79;100.00;101056.84;2615715;36;20081;-56
2022/11/25 06:54:31;;;;;;;6.28;2.90;;;;;;;8.76;100.00;101060.63;2614466;36;20578;-54
2022/11/25 06:56:59;;;;;;;7.65;3.13;;;;;;;8.83;100.00;101069.03;2615403;36;20038;-56
2022/11/25 06:59:27;;;;;;;9.48;3.05;;;;;;;8.77;100.00;101067.69;2614402;36;20439;-54
2022/11/25 07:01:56;;;;;;;9.60;3.25;;;;;;;8.70;100.00;101069.16;2612349;36;20027;-53
2022/11/25 07:04:27;;;;;;;12.15;3.65;;;;;;;8.77;100.00;101078.44;2616403;36;20079;-57
2022/11/25 07:06:56;;;;;;;7.97;2.95;;;;;;;8.88;100.00;101079.44;2616574;31;20026;-53
2022/11/25 07:09:27;;;;;;;12.13;3.75;;;;;;;8.74;100.00;101078.66;2614067;36;20038;-59
2022/11/25 07:11:55;;;;;;;6.90;3.03;;;;;;;8.86;100.00;101087.59;2615449;36;20034;-56
2022/11/25 07:14:24;;;;;;;8.15;3.17;;;;;;;8.81;100.00;101091.63;2616692;36;20042;-52
2022/11/25 07:16:52;;;;;;;10.80;3.30;;;;;;;8.73;100.00;101090.38;2616404;36;20034;-56
2022/11/25 07:19:21;;;;;;;8.23;3.35;;;;;;;8.80;100.00;101088.06;2615730;36;20031;-55
2022/11/25 07:21:49;;;;;;;10.13;3.38;;;;;;;8.83;100.00;101103.06;2615635;36;20038;-52
2022/11/25 07:24:20;;;;;;;10.57;3.90;;;;;;;8.67;100.00;101100.72;2613762;31;20023;-55
2022/11/25 07:26:50;;;;;;;8.45;3.38;;;;;;;8.62;100.00;101105.59;2615980;36;20567;-56
2022/11/25 07:29:19;;;;;;;7.95;4.13;;;;;;;8.69;100.00;101109.53;2616313;36;20026;-58
2022/11/25 07:31:47;;;;;;;11.37;3.60;;;;;;;8.65;100.00;101108.03;2615768;36;20042;-54
2022/11/25 07:34:19;;;;;;;9.70;3.70;;;;;;;8.72;100.00;101109.28;2616022;36;20314;-58
2022/11/25 07:36:48;;;;;;;8.90;3.60;;;;;;;8.59;100.00;101109.34;2613826;36;20287;-55
2022/11/25 07:39:22;;;;;;;14.05;4.35;;;;;;;8.60;100.00;101113.75;2613200;54;20030;-56
2022/11/25 07:41:54;;;;;;;7.40;3.83;;;;;;;8.75;100.00;101126.00;2581292;31;20917;-56
2022/11/25 07:44:23;;;;;;;8.70;3.88;;;;;;;8.83;100.00;101125.38;2612452;36;20031;-54
2022/11/25 07:46:52;;;;;;;12.95;4.20;;;;;;;8.75;100.00;101119.78;2613340;36;20512;-56
2022/11/25 07:49:24;;;;;;;7.47;3.60;;;;;;;8.59;100.00;101138.88;2613590;36;20028;-57
2022/11/25 07:51:55;;;;;;;13.40;4.18;;;;;;;8.56;100.00;101136.41;2612917;36;20069;-56
2022/11/25 07:54:24;;;;;;;7.30;3.67;;;;;;;8.54;100.00;101149.09;2612723;36;20034;-53
2022/11/25 07:56:55;;;;;;;10.30;3.75;;;;;;;8.46;100.00;101144.28;2610350;36;20072;-55
2022/11/25 07:59:24;;;;;;;13.43;4.05;;;;;;;8.50;100.00;101142.25;2613602;31;20027;-55
2022/11/25 08:01:54;;;;;;;10.40;3.88;;;;;;;8.41;100.00;101147.28;2613535;31;20034;-54
2022/11/25 08:04:23;;;;;;;11.52;3.80;;;;;;;8.55;100.00;101159.72;2613120;36;20030;-56
2022/11/25 08:06:53;;;;;;;9.20;4.40;;;;;;;8.59;100.00;101168.38;2613337;36;20057;-55
2022/11/25 08:09:25;;;;;;;9.07;4.38;;;;;;;8.66;100.00;101175.00;2612950;36;20138;-55
2022/11/25 08:11:57;;;;;;;11.07;3.92;;;;;;;8.65;100.00;101172.44;2612643;36;20030;-54
2022/11/25 08:14:25;;;;;;;14.68;4.68;;;;;;;8.57;100.00;101175.69;2612225;31;20467;-56
2022/11/25 08:16:54;;;;;;;11.52;4.28;;;;;;;8.57;100.00;101181.06;2612839;36;20027;-58
2022/11/25 08:19:22;;;;;;;11.63;3.67;;;;;;;8.57;100.00;101176.53;2612753;36;20030;-59
2022/11/25 08:21:51;;;;;;;13.02;4.13;;;;;;;8.73;100.00;101186.97;2613491;36;20042;-53
2022/11/25 08:24:21;;;;;;;9.48;3.88;;;;;;;8.59;100.00;101189.84;2613457;31;20035;-54
2022/11/25 08:26:51;;;;;;;11.75;4.28;;;;;;;8.64;100.00;101193.03;2611383;36;20061;-49
2022/11/25 08:29:22;;;;;;;10.32;4.82;;;;;;;8.58;100.00;101204.22;2612011;36;20085;-58
2022/11/25 08:31:51;;;;;;;9.70;4.95;;;;;;;8.68;100.00;101202.56;2612352;36;20126;-54
2022/11/25 08:34:21;;;;;;;10.15;4.95;;;;;;;8.79;100.00;101211.63;2612563;31;20683;-57
2022/11/25 08:36:50;;;;;;;11.77;5.15;;;;;;;8.87;100.00;101212.75;2611621;36;20034;-53
2022/11/25 08:39:19;;;;;;;12.98;4.50;;;;;;;9.04;100.00;101216.88;2612517;36;20577;-58
2022/11/25 08:41:47;;;;;;;12.13;5.47;;;;;;;8.95;100.00;101214.84;2604886;36;20072;-52
2022/11/25 08:44:16;;;;;;;11.50;4.65;;;;;;;8.79;100.00;101222.38;2610937;36;20034;-57
2022/11/25 08:46:47;;;;;;;10.65;5.07;;;;;;;8.93;100.00;101224.88;2613466;36;20034;-59
2022/11/25 08:49:18;;;;;;;10.43;4.88;;;;;;;8.84;100.00;101221.06;2613861;36;20035;-60
2022/11/25 08:51:46;;;;;;;14.25;5.40;;;;;;;9.02;100.00;101226.84;2608272;36;20030;-53
2022/11/25 08:54:15;;;;;;;9.57;4.65;;;;;;;9.05;100.00;101229.28;2614747;31;20533;-55
2022/11/25 08:56:43;;;;;;;13.18;5.22;;;;;;;9.04;100.00;101227.59;2614810;31;20576;-56
2022/11/25 08:59:12;;;;;;;9.88;4.85;;;;;;;9.16;100.00;101230.28;2617544;31;20023;-54
2022/11/25 09:01:40;;;;;;;10.93;5.23;;;;;;;9.11;100.00;101223.47;2614512;36;20117;-54
2022/11/25 09:04:11;;;;;;;12.35;4.93;;;;;;;9.21;100.00;101228.97;2614147;36;20307;-58
2022/11/25 09:06:40;;;;;;;10.80;5.15;;;;;;;9.34;100.00;101233.41;2615193;31;20031;-55
2022/11/25 09:09:09;;;;;;;10.77;4.60;;;;;;;9.31;100.00;101236.34;2615123;36;20034;-52
2022/11/25 09:11:41;;;;;;;12.33;4.20;;;;;;;9.23;100.00;101248.53;2613271;36;20035;-53
2022/11/25 09:14:09;;;;;;;10.15;4.22;;;;;;;9.22;100.00;101257.56;2614483;36;20042;-53
2022/11/25 09:16:37;;;;;;;10.60;4.25;;;;;;;9.35;100.00;101249.41;2614793;36;20030;-53
2022/11/25 09:19:06;;;;;;;11.55;4.65;;;;;;;9.46;100.00;101252.09;2614757;36;20038;-57
2022/11/25 09:21:37;;;;;;;11.10;5.05;;;;;;;9.33;100.00;101259.41;2613423;36;20034;-55
2022/11/25 09:24:05;;;;;;;11.13;4.35;;;;;;;9.50;100.00;101255.44;2612576;36;20892;-57
2022/11/25 09:26:35;;;;;;;13.60;4.90;;;;;;;9.46;100.00;101262.00;2613439;36;20026;-52
2022/11/25 09:29:03;;;;;;;12.88;4.00;;;;;;;9.51;100.00;101264.34;2613142;36;20295;-55
2022/11/25 09:31:32;;;;;;;9.30;3.97;;;;;;;9.54;100.00;101266.78;2615762;36;20443;-53
2022/11/25 09:34:00;;;;;;;9.85;3.75;;;;;;;9.60;100.00;101266.31;2614322;36;20038;-52
2022/11/25 09:36:29;;;;;;;9.25;4.07;;;;;;;9.58;100.00;101273.63;2613524;36;20031;-57
2022/11/25 09:39:00;;;;;;;14.15;3.90;;;;;;;9.84;100.00;101276.13;2613926;36;20038;-52
2022/11/25 09:47:40;;;;;;;7.65;3.58;;;;;;;9.93;100.00;101294.22;2613927;36;20130;-56
2022/11/25 09:50:18;;;;;;;9.90;4.07;;;;;;;9.79;100.00;101298.84;2607603;36;20054;-53
2022/11/25 09:52:55;;;;;;;6.30;3.50;;;;;;;10.03;100.00;101295.19;2608407;31;20034;-55
2022/11/25 09:55:32;;;;;;;8.77;4.60;;;;;;;9.96;100.00;101302.03;2613710;36;20031;-56
2022/11/25 09:58:15;;;;;;;14.25;3.72;;;;;;;10.01;100.00;101307.88;2613073;36;20030;-56
2022/11/25 10:00:47;;;;;;;9.45;3.63;;;;;;;9.94;100.00;101307.53;2615465;36;20108;-54
2022/11/25 10:03:34;;;;;;;8.40;3.53;;;;;;;10.15;100.00;101304.97;2613920;31;20038;-53
2022/11/25 10:06:06;;;;;;;9.80;3.65;;;;;;;10.01;100.00;101321.34;2614628;36;20428;-55
2022/11/25 10:08:40;;;;;;;11.48;3.15;;;;;;;10.08;100.00;101314.50;2609463;36;20491;-54
2022/11/25 10:11:20;;;;;;;8.63;3.25;;;;;;;10.20;100.00;101314.50;2606289;36;20068;-54
2022/11/25 10:13:56;;;;;;;9.25;2.78;;;;;;;10.42;100.00;101317.19;2605772;36;20034;-55
2022/11/25 10:16:34;;;;;;;10.82;4.82;;;;;;;10.31;100.00;101314.50;2606791;31;20041;-56
2022/11/25 10:19:07;;;;;;;10.90;3.30;;;;;;;10.41;100.00;101320.91;2606008;36;20065;-57
2022/11/25 10:21:35;;;;;;;10.90;3.40;;;;;;;10.29;100.00;101321.81;2606048;36;20435;-56
2022/11/25 10:24:08;;;;;;;9.38;3.35;;;;;;;10.32;100.00;101324.28;2606780;31;20459;-56
2022/11/25 10:26:45;;;;;;;6.68;2.83;;;;;;;10.29;100.00;101327.22;2606666;36;20030;-55
2022/11/25 10:29:29;;;;;;;11.00;3.30;;;;;;;10.30;100.00;101328.94;2606446;36;20038;-56
2022/11/25 10:32:07;;;;;;;11.02;3.33;;;;;;;10.44;100.00;101331.41;2606440;36;20072;-53
2022/11/25 10:34:39;;;;;;;6.47;3.10;;;;;;;10.63;100.00;101332.59;2606836;36;20041;-55
2022/11/25 10:37:14;;;;;;;7.25;2.97;;;;;;;10.66;100.00;101340.44;2605091;31;20034;-53
2022/11/25 10:39:42;;;;;;;6.43;3.10;;;;;;;10.59;100.00;101337.38;2606597;36;20042;-52
2022/11/25 10:42:19;;;;;;;7.10;2.78;;;;;;;10.55;100.00;101343.16;2604782;31;20042;-55
2022/11/25 10:44:48;;;;;;;7.10;2.78;;;;;;;10.67;100.00;101350.22;2606521;36;20056;-55
2022/11/25 10:47:28;;;;;;;9.75;3.35;;;;;;;10.74;100.00;101346.03;2607110;31;20031;-55
2022/11/25 10:50:08;;;;;;;7.32;2.65;;;;;;;10.78;100.00;101354.75;2607670;31;20038;-51
2022/11/25 10:52:41;;;;;;;8.30;2.75;;;;;;;10.82;100.00;101357.06;2598394;31;20035;-55
2022/11/25 10:55:14;;;;;;;9.02;2.60;;;;;;;10.90;100.00;101361.81;2600707;36;20038;-57
2022/11/25 10:57:46;;;;;;;7.70;2.45;;;;;;;11.03;100.00;101369.75;2606339;36;20031;-55
2022/11/25 11:00:27;;;;;;;7.55;2.35;;;;;;;11.01;100.00;101374.38;2606306;31;20034;-57
2022/11/25 11:02:57;;;;;;;6.68;2.42;;;;;;;11.01;100.00;101363.59;2606085;36;20031;-54
2022/11/25 11:05:28;;;;;;;11.20;2.50;;;;;;;11.13;100.00;101375.19;2606526;36;20066;-54
2022/11/25 11:08:17;;;;;;;6.18;2.35;;;;;;;11.04;100.00;101383.09;2606075;36;20034;-54
2022/11/25 11:10:45;;;;;;;8.32;2.97;;;;;;;11.06;100.00;101385.66;2606035;36;20038;-51
2022/11/25 11:13:26;;;;;;;9.23;2.70;;;;;;;11.29;100.00;101390.94;2607594;31;20065;-54
2022/11/25 11:15:55;;;;;;;9.48;2.88;;;;;;;11.31;100.00;101389.00;2607196;36;20415;-53
2022/11/25 11:18:29;;;;;;;6.50;2.22;;;;;;;11.32;100.00;101396.09;2608227;36;20981;-55
2022/11/25 11:21:00;;;;;;;6.15;2.53;;;;;;;11.25;100.00;101401.16;2614190;36;20030;-56
2022/11/25 11:23:30;;;;;;;8.70;2.60;;;;;;;11.34;100.00;101407.63;2612827;31;20438;-55
2022/11/25 11:26:01;;;;;;;7.13;2.25;;;;;;;11.58;100.00;101416.31;2613716;36;20039;-56
2022/11/25 11:28:41;;;;;;;6.40;2.08;;;;;;;11.81;100.00;101421.63;2615218;36;20034;-52
2022/11/25 11:31:19;;;;;;;12.07;3.10;;;;;;;11.61;100.00;101417.91;2615757;36;20034;-55
2022/11/25 11:33:58;;;;;;;6.60;2.20;;;;;;;11.83;100.00;101421.50;2613956;36;20615;-54
2022/11/25 11:49:02;;;;;;;7.78;2.78;;;;;;;11.45;100.00;101433.66;2619521;36;20337;-52
2022/11/25 11:51:40;;;;;;;9.68;2.63;;;;;;;11.53;100.00;101434.75;2618740;36;20030;-55
2022/11/25 11:54:12;;;;;;;6.15;1.90;;;;;;;11.62;100.00;101434.97;2617460;36;20030;-52
2022/11/25 11:56:44;;;;;;;11.63;2.70;;;;;;;11.55;100.00;101432.75;2609387;36;20034;-57
2022/11/25 11:59:45;;;;;;;9.30;2.35;;;;;;;11.58;100.00;101448.66;2619203;36;20454;-52